sensor_id;sensor_type;location;lat;lon;timestamp;P1;P2;P0
45990;PMS5003;31721;41.740;-88.000;2022-07-29T00:00:50;1;1;
45990;PMS5003;31721;41.740;-88.000;2022-07-29T00:03:18;2;1;
45990;PMS5003;31721;41.740;-88.000;2022-07-29T00:05:45;1;1;
45990;PMS5003;31721;41.740;-88.000;2022-07-29T00:08:13;1;1;
45990;PMS5003;31721;41.740;-88.000;2022-07-29T00:10:41;0;0;
45990;PMS5003;31721;41.740;-88.000;2022-07-29T00:13:08;2;2;
45990;PMS5003;31721;41.740;-88.000;2022-07-29T00:15:36;2;2;
45990;PMS5003;31721;41.740;-88.000;2022-07-29T00:18:04;0;0;
45990;PMS5003;31721;41.740;-88.000;2022-07-29T00:20:31;1;1;
45990;PMS5003;31721;41.740;-88.000;2022-07-29T00:22:59;3;3;
45990;PMS5003;31721;41.740;-88.000;2022-07-29T00:25:27;3;2;
45990;PMS5003;31721;41.740;-88.000;2022-07-29T00:27:54;3;3;
45990;PMS5003;31721;41.740;-88.000;2022-07-29T00:30:22;2;2;
45990;PMS5003;31721;41.740;-88.000;2022-07-29T00:32:49;1;1;
45990;PMS5003;31721;41.740;-88.000;2022-07-29T00:35:17;2;2;
45990;PMS5003;31721;41.740;-88.000;2022-07-29T00:37:45;0;0;
45990;PMS5003;31721;41.740;-88.000;2022-07-29T00:40:12;1;1;
45990;PMS5003;31721;41.740;-88.000;2022-07-29T00:42:42;2;2;
45990;PMS5003;31721;41.740;-88.000;2022-07-29T00:45:11;0;0;
45990;PMS5003;31721;41.740;-88.000;2022-07-29T00:47:39;0;0;
45990;PMS5003;31721;41.740;-88.000;2022-07-29T00:50:07;2;2;
45990;PMS5003;31721;41.740;-88.000;2022-07-29T00:52:36;0;0;
45990;PMS5003;31721;41.740;-88.000;2022-07-29T00:55:07;1;1;
45990;PMS5003;31721;41.740;-88.000;2022-07-29T00:57:37;1;0;
45990;PMS5003;31721;41.740;-88.000;2022-07-29T01:00:08;0;0;
45990;PMS5003;31721;41.740;-88.000;2022-07-29T01:02:37;2;1;
45990;PMS5003;31721;41.740;-88.000;2022-07-29T01:05:05;2;2;
45990;PMS5003;31721;41.740;-88.000;2022-07-29T01:07:34;2;2;
45990;PMS5003;31721;41.740;-88.000;2022-07-29T01:10:02;2;2;
45990;PMS5003;31721;41.740;-88.000;2022-07-29T01:12:32;2;2;
45990;PMS5003;31721;41.740;-88.000;2022-07-29T01:15:02;2;2;
45990;PMS5003;31721;41.740;-88.000;2022-07-29T01:17:33;3;3;
45990;PMS5003;31721;41.740;-88.000;2022-07-29T01:20:07;2;2;
45990;PMS5003;31721;41.740;-88.000;2022-07-29T01:22:52;1;1;
45990;PMS5003;31721;41.740;-88.000;2022-07-29T01:25:40;3;1;
45990;PMS5003;31721;41.740;-88.000;2022-07-29T01:28:20;1;1;
45990;PMS5003;31721;41.740;-88.000;2022-07-29T01:31:16;1;1;
45990;PMS5003;31721;41.740;-88.000;2022-07-29T01:33:50;1;1;
45990;PMS5003;31721;41.740;-88.000;2022-07-29T01:36:22;2;2;
45990;PMS5003;31721;41.740;-88.000;2022-07-29T01:38:58;2;2;
45990;PMS5003;31721;41.740;-88.000;2022-07-29T01:41:32;2;2;
45990;PMS5003;31721;41.740;-88.000;2022-07-29T01:44:05;1;1;
45990;PMS5003;31721;41.740;-88.000;2022-07-29T01:46:40;3;3;
45990;PMS5003;31721;41.740;-88.000;2022-07-29T01:49:21;3;3;
45990;PMS5003;31721;41.740;-88.000;2022-07-29T01:51:54;1;1;
45990;PMS5003;31721;41.740;-88.000;2022-07-29T01:54:26;3;3;
45990;PMS5003;31721;41.740;-88.000;2022-07-29T01:56:59;3;3;
45990;PMS5003;31721;41.740;-88.000;2022-07-29T01:59:27;3;3;
45990;PMS5003;31721;41.740;-88.000;2022-07-29T02:01:57;2;2;
45990;PMS5003;31721;41.740;-88.000;2022-07-29T02:04:25;5;5;
45990;PMS5003;31721;41.740;-88.000;2022-07-29T02:06:58;5;5;
45990;PMS5003;31721;41.740;-88.000;2022-07-29T02:09:29;7;7;
45990;PMS5003;31721;41.740;-88.000;2022-07-29T02:11:59;2;2;
45990;PMS5003;31721;41.740;-88.000;2022-07-29T02:14:29;2;2;
45990;PMS5003;31721;41.740;-88.000;2022-07-29T02:17:01;1;1;
45990;PMS5003;31721;41.740;-88.000;2022-07-29T02:19:30;3;3;
45990;PMS5003;31721;41.740;-88.000;2022-07-29T02:22:00;3;3;
45990;PMS5003;31721;41.740;-88.000;2022-07-29T02:24:28;2;2;
45990;PMS5003;31721;41.740;-88.000;2022-07-29T02:26:57;1;1;
45990;PMS5003;31721;41.740;-88.000;2022-07-29T02:29:28;2;2;
45990;PMS5003;31721;41.740;-88.000;2022-07-29T02:31:58;3;3;
45990;PMS5003;31721;41.740;-88.000;2022-07-29T02:34:28;4;3;
45990;PMS5003;31721;41.740;-88.000;2022-07-29T02:36:56;2;2;
45990;PMS5003;31721;41.740;-88.000;2022-07-29T02:39:25;3;3;
45990;PMS5003;31721;41.740;-88.000;2022-07-29T02:41:57;3;3;
45990;PMS5003;31721;41.740;-88.000;2022-07-29T02:44:28;3;3;
45990;PMS5003;31721;41.740;-88.000;2022-07-29T02:46:57;3;3;
45990;PMS5003;31721;41.740;-88.000;2022-07-29T02:49:35;3;3;
45990;PMS5003;31721;41.740;-88.000;2022-07-29T02:52:06;3;3;
45990;PMS5003;31721;41.740;-88.000;2022-07-29T02:54:40;4;4;
45990;PMS5003;31721;41.740;-88.000;2022-07-29T02:57:14;5;5;
45990;PMS5003;31721;41.740;-88.000;2022-07-29T02:59:50;5;5;
45990;PMS5003;31721;41.740;-88.000;2022-07-29T03:02:19;7;7;
45990;PMS5003;31721;41.740;-88.000;2022-07-29T03:04:53;5;5;
45990;PMS5003;31721;41.740;-88.000;2022-07-29T03:07:24;8;8;
45990;PMS5003;31721;41.740;-88.000;2022-07-29T03:09:52;9;9;
45990;PMS5003;31721;41.740;-88.000;2022-07-29T03:12:21;18;17;
45990;PMS5003;31721;41.740;-88.000;2022-07-29T03:14:49;3;3;
45990;PMS5003;31721;41.740;-88.000;2022-07-29T03:17:18;4;2;
45990;PMS5003;31721;41.740;-88.000;2022-07-29T03:19:47;2;2;
45990;PMS5003;31721;41.740;-88.000;2022-07-29T03:22:15;1;1;
45990;PMS5003;31721;41.740;-88.000;2022-07-29T03:24:43;2;2;
45990;PMS5003;31721;41.740;-88.000;2022-07-29T03:27:11;1;1;
45990;PMS5003;31721;41.740;-88.000;2022-07-29T03:29:38;2;2;
45990;PMS5003;31721;41.740;-88.000;2022-07-29T03:32:06;2;2;
45990;PMS5003;31721;41.740;-88.000;2022-07-29T03:34:34;4;2;
45990;PMS5003;31721;41.740;-88.000;2022-07-29T03:37:03;2;2;
45990;PMS5003;31721;41.740;-88.000;2022-07-29T03:39:33;3;3;
45990;PMS5003;31721;41.740;-88.000;2022-07-29T03:42:05;3;3;
45990;PMS5003;31721;41.740;-88.000;2022-07-29T03:44:37;2;2;
45990;PMS5003;31721;41.740;-88.000;2022-07-29T03:47:08;2;2;
45990;PMS5003;31721;41.740;-88.000;2022-07-29T03:49:37;5;5;
45990;PMS5003;31721;41.740;-88.000;2022-07-29T03:52:08;5;4;
45990;PMS5003;31721;41.740;-88.000;2022-07-29T03:54:36;4;4;
45990;PMS5003;31721;41.740;-88.000;2022-07-29T03:57:04;2;2;
45990;PMS5003;31721;41.740;-88.000;2022-07-29T03:59:33;4;4;
45990;PMS5003;31721;41.740;-88.000;2022-07-29T04:02:02;7;5;
45990;PMS5003;31721;41.740;-88.000;2022-07-29T04:04:32;5;5;
45990;PMS5003;31721;41.740;-88.000;2022-07-29T04:07:00;7;5;
45990;PMS5003;31721;41.740;-88.000;2022-07-29T04:09:28;5;5;
45990;PMS5003;31721;41.740;-88.000;2022-07-29T04:11:56;5;5;
45990;PMS5003;31721;41.740;-88.000;2022-07-29T04:14:24;5;5;
45990;PMS5003;31721;41.740;-88.000;2022-07-29T04:16:52;6;6;
45990;PMS5003;31721;41.740;-88.000;2022-07-29T04:19:20;7;7;
45990;PMS5003;31721;41.740;-88.000;2022-07-29T04:21:47;14;11;
45990;PMS5003;31721;41.740;-88.000;2022-07-29T04:24:15;9;8;
45990;PMS5003;31721;41.740;-88.000;2022-07-29T04:26:42;11;10;
45990;PMS5003;31721;41.740;-88.000;2022-07-29T04:29:12;9;8;
45990;PMS5003;31721;41.740;-88.000;2022-07-29T04:31:39;7;7;
45990;PMS5003;31721;41.740;-88.000;2022-07-29T04:34:07;4;4;
45990;PMS5003;31721;41.740;-88.000;2022-07-29T04:36:36;5;5;
45990;PMS5003;31721;41.740;-88.000;2022-07-29T04:39:03;5;5;
45990;PMS5003;31721;41.740;-88.000;2022-07-29T04:41:31;3;3;
45990;PMS5003;31721;41.740;-88.000;2022-07-29T04:43:59;6;6;
45990;PMS5003;31721;41.740;-88.000;2022-07-29T04:46:27;6;6;
45990;PMS5003;31721;41.740;-88.000;2022-07-29T04:48:54;5;3;
45990;PMS5003;31721;41.740;-88.000;2022-07-29T04:51:22;5;4;
45990;PMS5003;31721;41.740;-88.000;2022-07-29T04:53:50;5;5;
45990;PMS5003;31721;41.740;-88.000;2022-07-29T04:56:18;4;4;
45990;PMS5003;31721;41.740;-88.000;2022-07-29T04:58:46;3;3;
45990;PMS5003;31721;41.740;-88.000;2022-07-29T05:01:14;4;4;
45990;PMS5003;31721;41.740;-88.000;2022-07-29T05:03:41;3;3;
45990;PMS5003;31721;41.740;-88.000;2022-07-29T05:06:09;3;3;
45990;PMS5003;31721;41.740;-88.000;2022-07-29T05:08:37;3;3;
45990;PMS5003;31721;41.740;-88.000;2022-07-29T05:11:04;6;4;
45990;PMS5003;31721;41.740;-88.000;2022-07-29T05:13:32;2;2;
45990;PMS5003;31721;41.740;-88.000;2022-07-29T05:16:00;2;2;
45990;PMS5003;31721;41.740;-88.000;2022-07-29T05:18:28;4;4;
45990;PMS5003;31721;41.740;-88.000;2022-07-29T05:20:56;9;9;
45990;PMS5003;31721;41.740;-88.000;2022-07-29T05:23:24;23;23;
45990;PMS5003;31721;41.740;-88.000;2022-07-29T05:25:52;42;42;
45990;PMS5003;31721;41.740;-88.000;2022-07-29T05:28:19;42;41;
45990;PMS5003;31721;41.740;-88.000;2022-07-29T05:30:46;63;63;
45990;PMS5003;31721;41.740;-88.000;2022-07-29T05:33:14;105;105;
45990;PMS5003;31721;41.740;-88.000;2022-07-29T05:35:42;40;39;
45990;PMS5003;31721;41.740;-88.000;2022-07-29T05:38:10;42;41;
45990;PMS5003;31721;41.740;-88.000;2022-07-29T05:40:37;36;34;
45990;PMS5003;31721;41.740;-88.000;2022-07-29T05:43:05;49;49;
45990;PMS5003;31721;41.740;-88.000;2022-07-29T05:45:32;95;95;
45990;PMS5003;31721;41.740;-88.000;2022-07-29T05:47:59;94;92;
45990;PMS5003;31721;41.740;-88.000;2022-07-29T05:50:27;17;16;
45990;PMS5003;31721;41.740;-88.000;2022-07-29T05:52:55;77;77;
45990;PMS5003;31721;41.740;-88.000;2022-07-29T05:55:22;7;7;
45990;PMS5003;31721;41.740;-88.000;2022-07-29T05:57:51;15;15;
45990;PMS5003;31721;41.740;-88.000;2022-07-29T06:00:19;129;129;
45990;PMS5003;31721;41.740;-88.000;2022-07-29T06:02:47;14;14;
45990;PMS5003;31721;41.740;-88.000;2022-07-29T06:05:15;9;9;
45990;PMS5003;31721;41.740;-88.000;2022-07-29T06:07:43;15;15;
45990;PMS5003;31721;41.740;-88.000;2022-07-29T06:10:11;29;27;
45990;PMS5003;31721;41.740;-88.000;2022-07-29T06:12:38;49;49;
45990;PMS5003;31721;41.740;-88.000;2022-07-29T06:15:06;11;11;
45990;PMS5003;31721;41.740;-88.000;2022-07-29T06:17:35;11;11;
45990;PMS5003;31721;41.740;-88.000;2022-07-29T06:20:03;13;12;
45990;PMS5003;31721;41.740;-88.000;2022-07-29T06:22:31;7;7;
45990;PMS5003;31721;41.740;-88.000;2022-07-29T06:24:58;24;24;
45990;PMS5003;31721;41.740;-88.000;2022-07-29T06:27:27;11;11;
45990;PMS5003;31721;41.740;-88.000;2022-07-29T06:29:55;11;11;
45990;PMS5003;31721;41.740;-88.000;2022-07-29T06:32:23;18;17;
45990;PMS5003;31721;41.740;-88.000;2022-07-29T06:34:51;17;17;
45990;PMS5003;31721;41.740;-88.000;2022-07-29T06:37:24;25;25;
45990;PMS5003;31721;41.740;-88.000;2022-07-29T06:39:51;22;22;
45990;PMS5003;31721;41.740;-88.000;2022-07-29T06:42:19;20;19;
45990;PMS5003;31721;41.740;-88.000;2022-07-29T06:44:46;13;13;
45990;PMS5003;31721;41.740;-88.000;2022-07-29T06:47:14;17;17;
45990;PMS5003;31721;41.740;-88.000;2022-07-29T06:49:41;17;17;
45990;PMS5003;31721;41.740;-88.000;2022-07-29T06:52:09;7;7;
45990;PMS5003;31721;41.740;-88.000;2022-07-29T06:54:37;13;13;
45990;PMS5003;31721;41.740;-88.000;2022-07-29T06:57:04;36;36;
45990;PMS5003;31721;41.740;-88.000;2022-07-29T06:59:31;19;19;
45990;PMS5003;31721;41.740;-88.000;2022-07-29T07:01:59;17;17;
45990;PMS5003;31721;41.740;-88.000;2022-07-29T07:04:26;36;35;
45990;PMS5003;31721;41.740;-88.000;2022-07-29T07:06:54;17;17;
45990;PMS5003;31721;41.740;-88.000;2022-07-29T07:09:22;17;17;
45990;PMS5003;31721;41.740;-88.000;2022-07-29T07:11:50;20;19;
45990;PMS5003;31721;41.740;-88.000;2022-07-29T07:14:17;14;14;
45990;PMS5003;31721;41.740;-88.000;2022-07-29T07:16:44;18;18;
45990;PMS5003;31721;41.740;-88.000;2022-07-29T07:19:12;18;18;
45990;PMS5003;31721;41.740;-88.000;2022-07-29T07:21:39;18;18;
45990;PMS5003;31721;41.740;-88.000;2022-07-29T07:24:07;17;17;
45990;PMS5003;31721;41.740;-88.000;2022-07-29T07:26:34;17;17;
45990;PMS5003;31721;41.740;-88.000;2022-07-29T07:29:02;19;19;
45990;PMS5003;31721;41.740;-88.000;2022-07-29T07:31:36;21;21;
45990;PMS5003;31721;41.740;-88.000;2022-07-29T07:34:04;17;17;
45990;PMS5003;31721;41.740;-88.000;2022-07-29T07:36:31;24;24;
45990;PMS5003;31721;41.740;-88.000;2022-07-29T07:38:59;30;27;
45990;PMS5003;31721;41.740;-88.000;2022-07-29T07:41:27;30;30;
45990;PMS5003;31721;41.740;-88.000;2022-07-29T07:43:55;29;29;
45990;PMS5003;31721;41.740;-88.000;2022-07-29T07:46:22;32;31;
45990;PMS5003;31721;41.740;-88.000;2022-07-29T07:48:50;36;36;
45990;PMS5003;31721;41.740;-88.000;2022-07-29T07:51:17;58;58;
45990;PMS5003;31721;41.740;-88.000;2022-07-29T07:53:44;67;67;
45990;PMS5003;31721;41.740;-88.000;2022-07-29T07:56:12;155;154;
45990;PMS5003;31721;41.740;-88.000;2022-07-29T07:58:40;82;81;
45990;PMS5003;31721;41.740;-88.000;2022-07-29T08:01:08;62;62;
45990;PMS5003;31721;41.740;-88.000;2022-07-29T08:03:36;77;75;
45990;PMS5003;31721;41.740;-88.000;2022-07-29T08:06:04;72;72;
45990;PMS5003;31721;41.740;-88.000;2022-07-29T08:08:32;52;52;
45990;PMS5003;31721;41.740;-88.000;2022-07-29T08:11:00;14;14;
45990;PMS5003;31721;41.740;-88.000;2022-07-29T08:13:28;2;2;
45990;PMS5003;31721;41.740;-88.000;2022-07-29T08:15:56;6;5;
45990;PMS5003;31721;41.740;-88.000;2022-07-29T08:18:24;2;2;
45990;PMS5003;31721;41.740;-88.000;2022-07-29T08:20:53;2;2;
45990;PMS5003;31721;41.740;-88.000;2022-07-29T08:23:21;3;3;
45990;PMS5003;31721;41.740;-88.000;2022-07-29T08:25:48;5;3;
45990;PMS5003;31721;41.740;-88.000;2022-07-29T08:28:16;2;2;
45990;PMS5003;31721;41.740;-88.000;2022-07-29T08:30:44;4;4;
45990;PMS5003;31721;41.740;-88.000;2022-07-29T08:33:12;2;2;
45990;PMS5003;31721;41.740;-88.000;2022-07-29T08:35:40;2;2;
45990;PMS5003;31721;41.740;-88.000;2022-07-29T08:38:08;4;4;
45990;PMS5003;31721;41.740;-88.000;2022-07-29T08:40:35;4;3;
45990;PMS5003;31721;41.740;-88.000;2022-07-29T08:43:04;3;3;
45990;PMS5003;31721;41.740;-88.000;2022-07-29T08:45:35;3;3;
45990;PMS5003;31721;41.740;-88.000;2022-07-29T08:48:09;2;2;
45990;PMS5003;31721;41.740;-88.000;2022-07-29T08:50:44;3;3;
45990;PMS5003;31721;41.740;-88.000;2022-07-29T08:53:15;5;4;
45990;PMS5003;31721;41.740;-88.000;2022-07-29T08:55:45;3;3;
45990;PMS5003;31721;41.740;-88.000;2022-07-29T08:58:14;3;3;
45990;PMS5003;31721;41.740;-88.000;2022-07-29T09:00:44;6;4;
45990;PMS5003;31721;41.740;-88.000;2022-07-29T09:03:17;3;3;
45990;PMS5003;31721;41.740;-88.000;2022-07-29T09:05:46;3;3;
45990;PMS5003;31721;41.740;-88.000;2022-07-29T09:08:15;6;6;
45990;PMS5003;31721;41.740;-88.000;2022-07-29T09:10:44;4;4;
45990;PMS5003;31721;41.740;-88.000;2022-07-29T09:13:12;4;3;
45990;PMS5003;31721;41.740;-88.000;2022-07-29T09:15:40;5;4;
45990;PMS5003;31721;41.740;-88.000;2022-07-29T09:18:08;2;2;
45990;PMS5003;31721;41.740;-88.000;2022-07-29T09:20:36;2;2;
45990;PMS5003;31721;41.740;-88.000;2022-07-29T09:23:07;2;2;
45990;PMS5003;31721;41.740;-88.000;2022-07-29T09:25:36;5;4;
45990;PMS5003;31721;41.740;-88.000;2022-07-29T09:28:05;2;2;
45990;PMS5003;31721;41.740;-88.000;2022-07-29T09:30:34;5;5;
45990;PMS5003;31721;41.740;-88.000;2022-07-29T09:33:02;3;3;
45990;PMS5003;31721;41.740;-88.000;2022-07-29T09:35:30;2;2;
45990;PMS5003;31721;41.740;-88.000;2022-07-29T09:37:58;5;3;
45990;PMS5003;31721;41.740;-88.000;2022-07-29T09:40:37;4;3;
45990;PMS5003;31721;41.740;-88.000;2022-07-29T09:43:12;3;3;
45990;PMS5003;31721;41.740;-88.000;2022-07-29T09:45:40;2;1;
45990;PMS5003;31721;41.740;-88.000;2022-07-29T09:48:15;3;3;
45990;PMS5003;31721;41.740;-88.000;2022-07-29T09:50:46;3;3;
45990;PMS5003;31721;41.740;-88.000;2022-07-29T09:53:19;3;3;
45990;PMS5003;31721;41.740;-88.000;2022-07-29T09:55:57;2;2;
45990;PMS5003;31721;41.740;-88.000;2022-07-29T09:58:25;5;4;
45990;PMS5003;31721;41.740;-88.000;2022-07-29T10:00:53;2;2;
45990;PMS5003;31721;41.740;-88.000;2022-07-29T10:03:22;4;4;
45990;PMS5003;31721;41.740;-88.000;2022-07-29T10:06:04;3;3;
45990;PMS5003;31721;41.740;-88.000;2022-07-29T10:08:32;3;3;
45990;PMS5003;31721;41.740;-88.000;2022-07-29T10:11:08;5;4;
45990;PMS5003;31721;41.740;-88.000;2022-07-29T10:13:38;2;2;
45990;PMS5003;31721;41.740;-88.000;2022-07-29T10:16:07;3;3;
45990;PMS5003;31721;41.740;-88.000;2022-07-29T10:18:35;1;1;
45990;PMS5003;31721;41.740;-88.000;2022-07-29T10:21:04;3;3;
45990;PMS5003;31721;41.740;-88.000;2022-07-29T10:23:32;2;1;
45990;PMS5003;31721;41.740;-88.000;2022-07-29T10:26:01;2;2;
45990;PMS5003;31721;41.740;-88.000;2022-07-29T10:28:30;3;3;
45990;PMS5003;31721;41.740;-88.000;2022-07-29T10:31:03;2;2;
45990;PMS5003;31721;41.740;-88.000;2022-07-29T10:33:38;2;2;
45990;PMS5003;31721;41.740;-88.000;2022-07-29T10:36:20;2;2;
45990;PMS5003;31721;41.740;-88.000;2022-07-29T10:39:00;2;2;
45990;PMS5003;31721;41.740;-88.000;2022-07-29T10:41:43;4;3;
45990;PMS5003;31721;41.740;-88.000;2022-07-29T10:44:22;4;3;
45990;PMS5003;31721;41.740;-88.000;2022-07-29T10:46:52;2;2;
45990;PMS5003;31721;41.740;-88.000;2022-07-29T10:49:20;1;1;
45990;PMS5003;31721;41.740;-88.000;2022-07-29T10:51:57;2;2;
45990;PMS5003;31721;41.740;-88.000;2022-07-29T10:54:41;4;3;
45990;PMS5003;31721;41.740;-88.000;2022-07-29T10:57:13;1;1;
45990;PMS5003;31721;41.740;-88.000;2022-07-29T10:59:42;1;1;
45990;PMS5003;31721;41.740;-88.000;2022-07-29T11:03:03;4;3;
45990;PMS5003;31721;41.740;-88.000;2022-07-29T11:05:31;4;4;
45990;PMS5003;31721;41.740;-88.000;2022-07-29T11:08:20;4;3;
45990;PMS5003;31721;41.740;-88.000;2022-07-29T11:10:50;3;3;
45990;PMS5003;31721;41.740;-88.000;2022-07-29T11:13:51;5;4;
45990;PMS5003;31721;41.740;-88.000;2022-07-29T11:16:20;4;4;
45990;PMS5003;31721;41.740;-88.000;2022-07-29T11:19:21;2;2;
45990;PMS5003;31721;41.740;-88.000;2022-07-29T11:21:49;3;3;
45990;PMS5003;31721;41.740;-88.000;2022-07-29T11:24:18;4;4;
45990;PMS5003;31721;41.740;-88.000;2022-07-29T11:27:05;3;3;
45990;PMS5003;31721;41.740;-88.000;2022-07-29T11:29:35;3;3;
45990;PMS5003;31721;41.740;-88.000;2022-07-29T11:32:08;2;1;
45990;PMS5003;31721;41.740;-88.000;2022-07-29T11:34:38;2;1;
45990;PMS5003;31721;41.740;-88.000;2022-07-29T11:37:22;3;3;
45990;PMS5003;31721;41.740;-88.000;2022-07-29T11:40:22;4;2;
45990;PMS5003;31721;41.740;-88.000;2022-07-29T11:42:50;3;3;
45990;PMS5003;31721;41.740;-88.000;2022-07-29T11:45:20;3;3;
45990;PMS5003;31721;41.740;-88.000;2022-07-29T11:47:52;2;2;
45990;PMS5003;31721;41.740;-88.000;2022-07-29T11:50:35;4;3;
45990;PMS5003;31721;41.740;-88.000;2022-07-29T11:53:05;2;2;
45990;PMS5003;31721;41.740;-88.000;2022-07-29T11:55:38;5;4;
45990;PMS5003;31721;41.740;-88.000;2022-07-29T11:58:07;2;1;
45990;PMS5003;31721;41.740;-88.000;2022-07-29T12:00:35;2;2;
45990;PMS5003;31721;41.740;-88.000;2022-07-29T12:03:05;2;1;
45990;PMS5003;31721;41.740;-88.000;2022-07-29T12:05:35;3;3;
45990;PMS5003;31721;41.740;-88.000;2022-07-29T12:08:06;4;2;
45990;PMS5003;31721;41.740;-88.000;2022-07-29T12:10:43;4;4;
45990;PMS5003;31721;41.740;-88.000;2022-07-29T12:13:12;0;0;
45990;PMS5003;31721;41.740;-88.000;2022-07-29T12:15:41;2;2;
45990;PMS5003;31721;41.740;-88.000;2022-07-29T12:18:10;2;2;
45990;PMS5003;31721;41.740;-88.000;2022-07-29T12:20:40;2;2;
45990;PMS5003;31721;41.740;-88.000;2022-07-29T12:23:08;6;3;
45990;PMS5003;31721;41.740;-88.000;2022-07-29T12:25:35;3;3;
45990;PMS5003;31721;41.740;-88.000;2022-07-29T12:28:04;1;1;
45990;PMS5003;31721;41.740;-88.000;2022-07-29T12:30:37;46;46;
45990;PMS5003;31721;41.740;-88.000;2022-07-29T12:33:16;18;18;
45990;PMS5003;31721;41.740;-88.000;2022-07-29T12:35:47;6;6;
45990;PMS5003;31721;41.740;-88.000;2022-07-29T12:38:16;3;3;
45990;PMS5003;31721;41.740;-88.000;2022-07-29T12:40:45;2;1;
45990;PMS5003;31721;41.740;-88.000;2022-07-29T12:43:14;2;2;
45990;PMS5003;31721;41.740;-88.000;2022-07-29T12:45:44;1;1;
45990;PMS5003;31721;41.740;-88.000;2022-07-29T12:48:14;2;2;
45990;PMS5003;31721;41.740;-88.000;2022-07-29T12:50:58;2;1;
45990;PMS5003;31721;41.740;-88.000;2022-07-29T12:53:27;3;3;
45990;PMS5003;31721;41.740;-88.000;2022-07-29T12:55:56;2;2;
45990;PMS5003;31721;41.740;-88.000;2022-07-29T12:58:27;2;2;
45990;PMS5003;31721;41.740;-88.000;2022-07-29T13:01:01;1;1;
45990;PMS5003;31721;41.740;-88.000;2022-07-29T13:03:48;0;0;
45990;PMS5003;31721;41.740;-88.000;2022-07-29T13:06:35;2;2;
45990;PMS5003;31721;41.740;-88.000;2022-07-29T13:09:06;2;2;
45990;PMS5003;31721;41.740;-88.000;2022-07-29T13:11:37;0;0;
45990;PMS5003;31721;41.740;-88.000;2022-07-29T13:14:06;2;2;
45990;PMS5003;31721;41.740;-88.000;2022-07-29T13:16:36;0;0;
45990;PMS5003;31721;41.740;-88.000;2022-07-29T13:19:32;0;0;
45990;PMS5003;31721;41.740;-88.000;2022-07-29T13:22:03;3;3;
45990;PMS5003;31721;41.740;-88.000;2022-07-29T13:24:31;3;3;
45990;PMS5003;31721;41.740;-88.000;2022-07-29T13:26:59;0;0;
45990;PMS5003;31721;41.740;-88.000;2022-07-29T13:29:26;1;1;
45990;PMS5003;31721;41.740;-88.000;2022-07-29T13:31:59;3;3;
45990;PMS5003;31721;41.740;-88.000;2022-07-29T13:34:27;2;2;
45990;PMS5003;31721;41.740;-88.000;2022-07-29T13:36:55;1;1;
45990;PMS5003;31721;41.740;-88.000;2022-07-29T13:39:22;2;2;
45990;PMS5003;31721;41.740;-88.000;2022-07-29T13:41:51;2;2;
45990;PMS5003;31721;41.740;-88.000;2022-07-29T13:44:19;0;0;
45990;PMS5003;31721;41.740;-88.000;2022-07-29T13:46:47;2;2;
45990;PMS5003;31721;41.740;-88.000;2022-07-29T13:49:14;1;1;
45990;PMS5003;31721;41.740;-88.000;2022-07-29T13:51:42;2;2;
45990;PMS5003;31721;41.740;-88.000;2022-07-29T13:54:09;1;1;
45990;PMS5003;31721;41.740;-88.000;2022-07-29T13:56:37;5;3;
45990;PMS5003;31721;41.740;-88.000;2022-07-29T13:59:05;5;5;
45990;PMS5003;31721;41.740;-88.000;2022-07-29T14:01:33;2;2;
45990;PMS5003;31721;41.740;-88.000;2022-07-29T14:04:01;2;2;
45990;PMS5003;31721;41.740;-88.000;2022-07-29T14:06:29;3;2;
45990;PMS5003;31721;41.740;-88.000;2022-07-29T14:08:57;2;2;
45990;PMS5003;31721;41.740;-88.000;2022-07-29T14:11:25;2;2;
45990;PMS5003;31721;41.740;-88.000;2022-07-29T14:13:52;2;2;
45990;PMS5003;31721;41.740;-88.000;2022-07-29T14:16:20;0;0;
45990;PMS5003;31721;41.740;-88.000;2022-07-29T14:18:48;1;1;
45990;PMS5003;31721;41.740;-88.000;2022-07-29T14:21:15;2;2;
45990;PMS5003;31721;41.740;-88.000;2022-07-29T14:23:43;1;1;
45990;PMS5003;31721;41.740;-88.000;2022-07-29T14:26:11;2;1;
45990;PMS5003;31721;41.740;-88.000;2022-07-29T14:28:39;2;1;
45990;PMS5003;31721;41.740;-88.000;2022-07-29T14:31:06;1;1;
45990;PMS5003;31721;41.740;-88.000;2022-07-29T14:33:34;1;1;
45990;PMS5003;31721;41.740;-88.000;2022-07-29T14:36:01;1;1;
45990;PMS5003;31721;41.740;-88.000;2022-07-29T14:38:30;2;2;
45990;PMS5003;31721;41.740;-88.000;2022-07-29T14:40:57;2;1;
45990;PMS5003;31721;41.740;-88.000;2022-07-29T14:43:25;1;0;
45990;PMS5003;31721;41.740;-88.000;2022-07-29T14:45:53;2;2;
45990;PMS5003;31721;41.740;-88.000;2022-07-29T14:48:21;4;1;
45990;PMS5003;31721;41.740;-88.000;2022-07-29T14:50:48;1;1;
45990;PMS5003;31721;41.740;-88.000;2022-07-29T14:53:16;2;2;
45990;PMS5003;31721;41.740;-88.000;2022-07-29T14:55:44;2;2;
45990;PMS5003;31721;41.740;-88.000;2022-07-29T14:58:12;1;1;
45990;PMS5003;31721;41.740;-88.000;2022-07-29T15:00:39;0;0;
45990;PMS5003;31721;41.740;-88.000;2022-07-29T15:03:07;3;2;
45990;PMS5003;31721;41.740;-88.000;2022-07-29T15:05:35;0;0;
45990;PMS5003;31721;41.740;-88.000;2022-07-29T15:08:03;1;1;
45990;PMS5003;31721;41.740;-88.000;2022-07-29T15:10:31;1;1;
45990;PMS5003;31721;41.740;-88.000;2022-07-29T15:12:58;1;1;
45990;PMS5003;31721;41.740;-88.000;2022-07-29T15:15:27;1;1;
45990;PMS5003;31721;41.740;-88.000;2022-07-29T15:17:55;2;2;
45990;PMS5003;31721;41.740;-88.000;2022-07-29T15:20:22;2;2;
45990;PMS5003;31721;41.740;-88.000;2022-07-29T15:22:50;3;1;
45990;PMS5003;31721;41.740;-88.000;2022-07-29T15:25:18;1;1;
45990;PMS5003;31721;41.740;-88.000;2022-07-29T15:27:45;2;2;
45990;PMS5003;31721;41.740;-88.000;2022-07-29T15:30:13;1;1;
45990;PMS5003;31721;41.740;-88.000;2022-07-29T15:32:40;1;1;
45990;PMS5003;31721;41.740;-88.000;2022-07-29T15:35:08;1;1;
45990;PMS5003;31721;41.740;-88.000;2022-07-29T15:37:35;1;1;
45990;PMS5003;31721;41.740;-88.000;2022-07-29T15:40:04;1;1;
45990;PMS5003;31721;41.740;-88.000;2022-07-29T15:42:32;0;0;
45990;PMS5003;31721;41.740;-88.000;2022-07-29T15:45:03;2;2;
45990;PMS5003;31721;41.740;-88.000;2022-07-29T15:47:32;1;1;
45990;PMS5003;31721;41.740;-88.000;2022-07-29T15:50:02;1;1;
45990;PMS5003;31721;41.740;-88.000;2022-07-29T15:52:31;1;1;
45990;PMS5003;31721;41.740;-88.000;2022-07-29T15:54:58;1;1;
45990;PMS5003;31721;41.740;-88.000;2022-07-29T15:57:25;2;2;
45990;PMS5003;31721;41.740;-88.000;2022-07-29T15:59:53;1;1;
45990;PMS5003;31721;41.740;-88.000;2022-07-29T16:02:21;2;2;
45990;PMS5003;31721;41.740;-88.000;2022-07-29T16:04:48;2;2;
45990;PMS5003;31721;41.740;-88.000;2022-07-29T16:07:16;1;1;
45990;PMS5003;31721;41.740;-88.000;2022-07-29T16:09:44;3;2;
45990;PMS5003;31721;41.740;-88.000;2022-07-29T16:12:11;2;2;
45990;PMS5003;31721;41.740;-88.000;2022-07-29T16:14:39;2;2;
45990;PMS5003;31721;41.740;-88.000;2022-07-29T16:17:06;1;1;
45990;PMS5003;31721;41.740;-88.000;2022-07-29T16:19:34;2;1;
45990;PMS5003;31721;41.740;-88.000;2022-07-29T16:22:02;2;2;
45990;PMS5003;31721;41.740;-88.000;2022-07-29T16:24:30;52;50;
45990;PMS5003;31721;41.740;-88.000;2022-07-29T16:26:57;18;18;
45990;PMS5003;31721;41.740;-88.000;2022-07-29T16:29:25;26;26;